createdAt,value
2022-12-31T00:00:15.338Z,13.27
2022-12-31T00:02:42.182Z,13.30
2022-12-31T00:05:09.792Z,13.32
2022-12-31T00:10:05.058Z,13.38
2022-12-31T00:12:34.353Z,13.42
2022-12-31T00:15:03.748Z,13.43
2022-12-31T00:17:33.218Z,13.45
2022-12-31T00:20:00.839Z,13.42
2022-12-31T00:22:28.184Z,13.41
2022-12-31T00:24:54.898Z,13.32
2022-12-31T00:27:23.211Z,13.27
2022-12-31T00:29:50.787Z,13.21
2022-12-31T00:32:18.851Z,13.25
2022-12-31T00:34:46.033Z,13.20
2022-12-31T00:37:13.187Z,13.18
2022-12-31T00:39:40.615Z,13.17
2022-12-31T00:42:08.326Z,13.16
2022-12-31T00:44:35.357Z,13.22
2022-12-31T00:47:02.467Z,13.19
2022-12-31T00:49:31.308Z,13.13
2022-12-31T00:51:58.806Z,13.10
2022-12-31T00:54:27.892Z,13.08
2022-12-31T00:56:54.617Z,12.98
2022-12-31T00:59:21.839Z,12.97
2022-12-31T01:01:50.140Z,12.94
2022-12-31T01:04:19.695Z,12.93
2022-12-31T01:06:47.123Z,12.91
2022-12-31T01:09:15.836Z,12.87
2022-12-31T01:11:43.675Z,12.86
2022-12-31T01:14:12.162Z,12.87
2022-12-31T01:16:46.975Z,12.91
2022-12-31T01:19:21.602Z,12.85
2022-12-31T01:21:48.945Z,12.88
2022-12-31T01:24:15.890Z,12.91
2022-12-31T01:26:43.754Z,12.96
2022-12-31T01:29:10.619Z,13.00
2022-12-31T01:31:38.468Z,13.07
2022-12-31T01:34:06.364Z,13.21
2022-12-31T01:36:34.383Z,13.21
2022-12-31T01:39:02.535Z,13.35
2022-12-31T01:41:34.135Z,13.47
2022-12-31T01:44:22.341Z,13.50
2022-12-31T01:46:53.071Z,13.57
2022-12-31T01:49:19.957Z,13.61
2022-12-31T01:51:49.851Z,13.62
2022-12-31T01:54:20.678Z,13.75
2022-12-31T01:56:49.984Z,13.91
2022-12-31T01:59:18.353Z,13.95
2022-12-31T02:01:48.224Z,13.95
2022-12-31T02:04:16.422Z,14.09
2022-12-31T02:07:03.608Z,14.27
2022-12-31T02:09:32.894Z,14.27
2022-12-31T02:12:00.353Z,14.27
2022-12-31T02:14:32.193Z,14.35
2022-12-31T02:17:05.525Z,14.51
2022-12-31T02:19:51.075Z,14.63
2022-12-31T02:22:48.385Z,14.73
2022-12-31T02:25:27.948Z,14.80
2022-12-31T02:27:57.838Z,14.88
2022-12-31T02:30:26.724Z,14.92
2022-12-31T02:33:04.676Z,15.01
2022-12-31T02:35:49.752Z,15.02
2022-12-31T02:38:24.843Z,15.12
2022-12-31T02:40:54.634Z,15.18
2022-12-31T02:43:23.767Z,15.21
2022-12-31T02:46:25.091Z,15.35
2022-12-31T02:49:01.934Z,15.32
2022-12-31T02:51:53.339Z,15.45
2022-12-31T02:54:48.727Z,15.48
2022-12-31T02:57:42.500Z,15.57
2022-12-31T03:00:33.744Z,15.50
2022-12-31T03:03:03.729Z,15.52
2022-12-31T03:05:37.478Z,15.52
2022-12-31T03:08:12.713Z,15.46
2022-12-31T03:10:40.042Z,15.32
2022-12-31T03:13:06.935Z,15.27
2022-12-31T03:15:35.173Z,15.12
2022-12-31T03:18:03.977Z,15.13
2022-12-31T03:21:16.695Z,15.08
2022-12-31T03:24:03.490Z,15.17
2022-12-31T03:26:32.250Z,15.13
2022-12-31T03:29:01.532Z,15.13
2022-12-31T03:31:28.927Z,15.24
2022-12-31T03:33:56.382Z,15.33
2022-12-31T03:36:23.634Z,15.31
2022-12-31T03:38:53.441Z,15.38
2022-12-31T03:41:21.151Z,15.47
2022-12-31T03:43:49.450Z,15.57
2022-12-31T03:46:16.329Z,15.52
2022-12-31T03:48:44.728Z,15.59
2022-12-31T03:51:12.011Z,15.63
2022-12-31T03:53:39.646Z,15.56
2022-12-31T03:56:07.785Z,15.57
2022-12-31T03:58:35.039Z,15.56
2022-12-31T04:01:02.145Z,15.47
2022-12-31T04:03:29.488Z,15.61
2022-12-31T04:05:57.911Z,15.51
2022-12-31T04:08:25.422Z,15.47
2022-12-31T04:10:52.300Z,15.55
2022-12-31T04:13:19.837Z,15.50
2022-12-31T04:15:50.862Z,15.52
2022-12-31T04:18:18.921Z,15.44
2022-12-31T04:20:46.086Z,15.45
2022-12-31T04:23:13.340Z,15.44
2022-12-31T04:25:40.568Z,15.32
2022-12-31T04:28:08.518Z,15.36
2022-12-31T04:30:35.868Z,15.39
2022-12-31T04:33:02.873Z,15.44
2022-12-31T04:35:32.225Z,15.33
2022-12-31T04:38:01.495Z,15.31
2022-12-31T04:40:29.399Z,15.45
2022-12-31T04:42:57.323Z,15.50
2022-12-31T04:45:24.543Z,15.51
2022-12-31T04:47:52.382Z,15.64
2022-12-31T04:50:19.703Z,15.62
2022-12-31T04:52:47.126Z,15.63
2022-12-31T04:55:14.275Z,15.69
2022-12-31T04:57:43.107Z,15.71
2022-12-31T05:00:11.950Z,15.71
2022-12-31T05:02:41.478Z,15.80
2022-12-31T05:05:10.301Z,15.81
2022-12-31T05:07:38.684Z,15.86
2022-12-31T05:10:06.922Z,15.88
2022-12-31T05:12:34.474Z,15.86
2022-12-31T05:15:03.153Z,15.94
2022-12-31T05:17:30.381Z,15.97
2022-12-31T05:19:58.148Z,15.97
2022-12-31T05:22:31.450Z,15.97
2022-12-31T05:25:00.316Z,16.03
2022-12-31T05:27:33.342Z,16.09
2022-12-31T05:30:01.666Z,16.04
2022-12-31T05:32:28.767Z,16.02
2022-12-31T05:34:56.851Z,16.10
2022-12-31T05:37:27.839Z,16.22
2022-12-31T05:39:57.193Z,16.27
2022-12-31T05:42:26.833Z,16.27
2022-12-31T05:44:55.243Z,16.24
2022-12-31T05:47:24.631Z,16.24
2022-12-31T05:49:52.624Z,16.24
2022-12-31T05:52:20.128Z,16.21
2022-12-31T05:54:47.168Z,16.26
2022-12-31T05:57:14.290Z,16.36
2022-12-31T05:59:42.160Z,16.37
2022-12-31T06:02:09.204Z,16.36
2022-12-31T06:04:36.092Z,16.41
2022-12-31T06:07:02.856Z,16.49
2022-12-31T06:09:33.383Z,16.48
2022-12-31T06:12:00.217Z,16.51
2022-12-31T06:14:28.154Z,16.42
2022-12-31T06:16:55.759Z,16.39
2022-12-31T06:19:22.513Z,16.40
2022-12-31T06:21:50.138Z,16.39
2022-12-31T06:24:20.100Z,16.42
2022-12-31T06:26:48.406Z,16.46
2022-12-31T06:29:15.665Z,16.41
2022-12-31T06:31:42.544Z,16.40
2022-12-31T06:34:09.909Z,16.33
2022-12-31T06:36:37.771Z,16.41
2022-12-31T06:39:05.296Z,16.40
2022-12-31T06:41:32.857Z,16.41
2022-12-31T06:43:59.802Z,16.50
2022-12-31T06:46:26.681Z,16.51
2022-12-31T06:48:53.392Z,16.58
2022-12-31T06:51:21.935Z,16.57
2022-12-31T06:53:50.921Z,16.56
2022-12-31T06:56:31.275Z,16.54
2022-12-31T06:59:00.735Z,16.65
2022-12-31T07:01:41.108Z,16.70
2022-12-31T07:04:45.414Z,16.66
2022-12-31T07:07:22.105Z,16.73
2022-12-31T07:10:29.652Z,16.71
2022-12-31T07:13:09.539Z,16.71
2022-12-31T07:16:15.234Z,16.63
2022-12-31T07:19:10.428Z,16.59
2022-12-31T07:21:41.167Z,16.69
2022-12-31T07:24:10.418Z,16.64
2022-12-31T07:26:43.530Z,16.61
2022-12-31T07:29:39.425Z,16.68
2022-12-31T07:32:19.258Z,16.66
2022-12-31T07:35:17.294Z,16.59
2022-12-31T07:38:06.383Z,16.60
2022-12-31T07:40:45.720Z,16.57
2022-12-31T07:43:24.880Z,16.51
2022-12-31T07:46:13.925Z,16.48
2022-12-31T07:48:41.111Z,16.50
2022-12-31T07:51:10.231Z,16.51
2022-12-31T07:53:38.000Z,16.57
2022-12-31T07:56:09.293Z,16.51
2022-12-31T07:58:59.755Z,16.54
2022-12-31T08:01:41.830Z,16.56
2022-12-31T08:04:14.943Z,16.62
2022-12-31T08:07:20.373Z,16.68
2022-12-31T08:09:59.658Z,16.66
2022-12-31T08:12:31.182Z,16.60
2022-12-31T08:14:58.387Z,16.76
2022-12-31T08:17:26.182Z,16.76
2022-12-31T08:19:54.141Z,16.78
2022-12-31T08:23:04.609Z,16.76
2022-12-31T08:25:31.286Z,16.75
2022-12-31T08:28:25.956Z,16.77
2022-12-31T08:31:32.507Z,16.84
2022-12-31T08:34:08.146Z,16.87
2022-12-31T08:36:47.113Z,16.87
2022-12-31T08:39:21.639Z,16.87
2022-12-31T08:41:53.411Z,16.93
2022-12-31T08:44:38.431Z,16.86
2022-12-31T08:47:38.390Z,16.88
2022-12-31T08:50:12.766Z,16.91
2022-12-31T08:52:40.771Z,16.86
2022-12-31T08:55:12.438Z,16.84
2022-12-31T08:58:04.186Z,16.82
2022-12-31T09:00:33.664Z,16.88
2022-12-31T09:03:20.142Z,16.96
2022-12-31T09:06:19.855Z,16.97
2022-12-31T09:09:14.328Z,16.99
2022-12-31T09:11:41.297Z,16.90
2022-12-31T09:14:37.594Z,16.97
2022-12-31T09:17:29.099Z,16.94
2022-12-31T09:19:56.729Z,16.97
2022-12-31T09:22:24.481Z,16.96
2022-12-31T09:24:51.674Z,16.92
2022-12-31T09:27:36.011Z,16.94
2022-12-31T09:30:06.309Z,17.01
2022-12-31T09:33:10.677Z,16.96
2022-12-31T09:35:55.253Z,16.96
2022-12-31T09:38:31.968Z,16.94
2022-12-31T09:41:14.503Z,17.00
2022-12-31T09:44:01.214Z,16.99
2022-12-31T09:46:42.680Z,16.92
2022-12-31T09:49:34.225Z,16.91
2022-12-31T09:52:30.983Z,16.96
2022-12-31T09:55:16.713Z,17.02
2022-12-31T09:57:55.482Z,17.01
2022-12-31T10:00:38.489Z,17.01
2022-12-31T10:03:29.893Z,17.05
2022-12-31T10:06:03.641Z,17.13
2022-12-31T10:08:33.034Z,17.07
2022-12-31T10:11:06.609Z,17.19
2022-12-31T10:13:43.118Z,17.16
2022-12-31T10:16:49.507Z,17.20
2022-12-31T10:19:47.617Z,17.24
2022-12-31T10:22:24.021Z,17.31
2022-12-31T10:25:17.325Z,17.33
2022-12-31T10:28:12.010Z,17.36
2022-12-31T10:30:49.145Z,17.38
2022-12-31T10:33:45.415Z,17.38
2022-12-31T10:36:31.655Z,17.41
2022-12-31T10:39:24.675Z,17.41
2022-12-31T10:42:24.023Z,17.42
2022-12-31T10:45:15.697Z,17.46
2022-12-31T10:48:00.678Z,17.48
2022-12-31T10:51:05.089Z,17.48
2022-12-31T10:54:02.586Z,17.48
2022-12-31T10:56:52.699Z,17.57
2022-12-31T10:59:49.131Z,17.70
2022-12-31T11:02:36.681Z,17.67
2022-12-31T11:05:10.420Z,17.63
2022-12-31T11:08:13.106Z,17.74
2022-12-31T11:10:58.799Z,17.71
2022-12-31T11:14:10.044Z,17.83
2022-12-31T11:17:07.522Z,17.75
2022-12-31T11:19:47.052Z,17.77
2022-12-31T11:22:38.334Z,17.76
2022-12-31T11:25:11.414Z,17.72
2022-12-31T11:27:46.120Z,17.81
2022-12-31T11:30:46.089Z,17.67
2022-12-31T11:33:34.309Z,17.69
2022-12-31T11:36:33.171Z,17.63
2022-12-31T11:39:57.790Z,17.62
2022-12-31T11:42:58.548Z,17.61
2022-12-31T11:45:52.780Z,17.58
2022-12-31T11:48:30.933Z,17.58
2022-12-31T11:51:14.720Z,17.46
2022-12-31T11:54:10.673Z,17.52
2022-12-31T11:56:41.796Z,17.46
2022-12-31T11:59:18.872Z,17.50
2022-12-31T12:02:00.646Z,17.48
2022-12-31T12:04:28.433Z,17.52
2022-12-31T12:06:55.602Z,17.54
2022-12-31T12:09:31.161Z,17.50
2022-12-31T12:12:04.700Z,17.50
2022-12-31T12:14:41.697Z,17.52
2022-12-31T12:17:15.996Z,17.48
2022-12-31T12:19:48.116Z,17.45
2022-12-31T12:22:23.406Z,17.46
2022-12-31T12:24:59.059Z,17.37
2022-12-31T12:27:31.514Z,17.29
2022-12-31T12:30:23.822Z,17.17
2022-12-31T12:32:59.205Z,17.01
2022-12-31T12:35:29.578Z,16.90
2022-12-31T12:38:06.249Z,16.74
2022-12-31T12:40:34.788Z,16.69
2022-12-31T12:43:03.246Z,16.62
2022-12-31T12:45:45.151Z,16.54
2022-12-31T12:48:34.157Z,16.63
2022-12-31T12:51:17.699Z,16.64
2022-12-31T12:54:08.547Z,16.72
2022-12-31T12:57:19.919Z,16.67
2022-12-31T13:00:18.357Z,16.73
2022-12-31T13:03:13.700Z,16.77
2022-12-31T13:05:58.005Z,16.78
2022-12-31T13:08:57.323Z,16.80
2022-12-31T13:11:46.682Z,16.84
2022-12-31T13:14:22.827Z,16.84
2022-12-31T13:17:14.912Z,16.86
2022-12-31T13:20:07.457Z,16.96
2022-12-31T13:22:40.603Z,16.92
2022-12-31T13:25:17.736Z,16.98
2022-12-31T13:27:48.119Z,16.93
2022-12-31T13:30:19.776Z,16.99
2022-12-31T13:32:52.802Z,17.03
2022-12-31T13:35:28.547Z,17.02
2022-12-31T13:38:15.428Z,17.01
2022-12-31T13:40:57.483Z,17.09
2022-12-31T13:43:24.287Z,17.06
2022-12-31T13:46:02.956Z,16.96
2022-12-31T13:48:37.602Z,16.97
2022-12-31T13:51:28.139Z,16.96
2022-12-31T13:54:01.904Z,16.82
2022-12-31T13:56:37.037Z,16.88
2022-12-31T13:59:20.663Z,16.84
2022-12-31T14:01:54.540Z,16.77
2022-12-31T14:04:30.309Z,16.78
2022-12-31T14:07:18.250Z,16.70
2022-12-31T14:09:47.216Z,16.80
2022-12-31T14:12:45.755Z,16.87
2022-12-31T14:15:18.545Z,16.81
2022-12-31T14:17:54.733Z,16.85
2022-12-31T14:20:46.225Z,16.81
2022-12-31T14:23:35.551Z,16.75
2022-12-31T14:26:27.637Z,16.81
2022-12-31T14:29:10.274Z,16.80
2022-12-31T14:31:49.539Z,16.78
2022-12-31T14:34:19.989Z,16.77
2022-12-31T14:36:50.786Z,16.76
2022-12-31T14:39:18.290Z,16.64
2022-12-31T14:42:00.968Z,16.67
2022-12-31T14:45:01.300Z,16.65
2022-12-31T14:47:54.827Z,16.57
2022-12-31T14:50:26.321Z,16.54
2022-12-31T14:52:55.680Z,16.48
2022-12-31T14:55:29.956Z,16.38
2022-12-31T14:58:26.887Z,16.28
2022-12-31T15:01:01.229Z,16.13
2022-12-31T15:03:31.280Z,16.02
2022-12-31T15:06:57.446Z,16.05
2022-12-31T15:09:52.237Z,15.95
2022-12-31T15:12:42.017Z,15.87
2022-12-31T15:15:22.858Z,15.80
2022-12-31T15:18:15.600Z,15.83
2022-12-31T15:20:45.358Z,15.75
2022-12-31T15:23:19.780Z,15.71
2022-12-31T15:25:49.118Z,15.71
2022-12-31T15:28:42.974Z,15.70
2022-12-31T15:31:18.154Z,15.65
2022-12-31T15:34:35.900Z,15.69
2022-12-31T15:37:05.694Z,15.61
2022-12-31T15:39:32.820Z,15.68
2022-12-31T15:42:36.656Z,15.67
2022-12-31T15:44:57.933Z,15.63
2022-12-31T15:47:38.756Z,15.55
2022-12-31T15:50:12.217Z,15.52
2022-12-31T15:52:47.895Z,15.44
2022-12-31T15:55:27.444Z,15.45
2022-12-31T15:58:15.889Z,15.40
2022-12-31T16:01:22.426Z,15.34
2022-12-31T16:04:04.256Z,15.31
2022-12-31T16:06:35.469Z,15.37
2022-12-31T16:09:03.452Z,15.38
2022-12-31T16:11:31.139Z,15.46
2022-12-31T16:13:59.753Z,15.37
2022-12-31T16:16:29.979Z,15.52
2022-12-31T16:18:58.472Z,15.49
2022-12-31T16:21:34.619Z,15.51
2022-12-31T16:24:05.694Z,15.42
2022-12-31T16:26:49.877Z,15.42
2022-12-31T16:29:19.818Z,15.49
2022-12-31T16:31:48.764Z,15.56
2022-12-31T16:34:24.631Z,15.54
2022-12-31T16:37:04.442Z,15.61
2022-12-31T16:39:41.013Z,15.65
2022-12-31T16:42:13.737Z,15.69
2022-12-31T16:44:42.007Z,15.65
2022-12-31T16:47:17.564Z,15.63
2022-12-31T16:49:47.663Z,15.77
2022-12-31T16:52:38.546Z,15.69
2022-12-31T16:55:11.364Z,15.80
2022-12-31T16:57:39.435Z,15.72
2022-12-31T17:00:07.566Z,15.80
2022-12-31T17:02:39.032Z,15.75
2022-12-31T17:05:21.891Z,15.83
2022-12-31T17:07:49.463Z,15.72
2022-12-31T17:10:25.162Z,15.62
2022-12-31T17:13:28.386Z,15.74
2022-12-31T17:15:47.639Z,15.74
2022-12-31T17:18:19.992Z,15.74
2022-12-31T17:20:48.537Z,15.74
2022-12-31T17:23:37.589Z,15.70
2022-12-31T17:26:14.085Z,15.72
2022-12-31T17:28:49.871Z,15.67
2022-12-31T17:31:34.968Z,15.65
2022-12-31T17:34:22.390Z,15.71
2022-12-31T17:37:18.074Z,15.68
2022-12-31T17:39:50.358Z,15.80
2022-12-31T17:42:26.312Z,15.84
2022-12-31T17:44:57.549Z,15.84
2022-12-31T17:47:25.775Z,15.76
2022-12-31T17:49:53.467Z,15.66
2022-12-31T17:52:20.956Z,15.66
2022-12-31T17:54:48.090Z,15.70
2022-12-31T17:57:26.592Z,15.68
2022-12-31T17:59:53.936Z,15.68
2022-12-31T18:02:21.814Z,15.78
2022-12-31T18:04:49.592Z,15.60
2022-12-31T18:07:16.713Z,15.61
2022-12-31T18:09:43.798Z,15.53
2022-12-31T18:12:14.162Z,15.55
2022-12-31T18:14:44.508Z,15.44
2022-12-31T18:17:16.333Z,15.50
2022-12-31T18:20:04.273Z,15.47
2022-12-31T18:22:30.313Z,15.50
2022-12-31T18:24:57.270Z,15.49
2022-12-31T18:27:24.079Z,15.47
2022-12-31T18:29:51.482Z,15.48
2022-12-31T18:32:28.365Z,15.41
2022-12-31T18:34:55.449Z,15.41
2022-12-31T18:37:22.745Z,15.36
2022-12-31T18:39:49.600Z,15.42
2022-12-31T18:42:19.162Z,15.42
2022-12-31T18:44:46.841Z,15.38
2022-12-31T18:47:20.110Z,15.32
2022-12-31T18:49:48.639Z,15.17
2022-12-31T18:52:21.689Z,15.21
2022-12-31T18:54:48.930Z,15.20
2022-12-31T18:57:16.348Z,15.20
2022-12-31T18:59:43.096Z,15.14
2022-12-31T19:02:19.799Z,15.10
2022-12-31T19:04:47.999Z,15.16
2022-12-31T19:07:15.004Z,15.20
2022-12-31T19:09:46.388Z,15.15
2022-12-31T19:12:15.224Z,15.15
2022-12-31T19:14:42.657Z,15.20
2022-12-31T19:19:35.407Z,15.06
2022-12-31T19:22:02.868Z,15.16
2022-12-31T19:24:30.341Z,15.06
2022-12-31T19:26:57.745Z,15.01
2022-12-31T19:29:27.709Z,15.00
2022-12-31T19:31:54.861Z,14.88
2022-12-31T19:34:21.799Z,14.92
2022-12-31T19:36:48.944Z,14.96
2022-12-31T19:39:18.925Z,14.98
2022-12-31T19:41:50.124Z,14.93
2022-12-31T19:44:21.702Z,14.87
2022-12-31T19:46:49.525Z,15.05
2022-12-31T19:49:16.671Z,15.08
2022-12-31T19:51:43.481Z,15.09
2022-12-31T19:54:13.363Z,15.02
2022-12-31T19:56:41.187Z,15.02
2022-12-31T19:59:10.108Z,15.13
2022-12-31T20:01:38.844Z,15.09
2022-12-31T20:04:06.262Z,15.05
2022-12-31T20:06:33.380Z,15.04
2022-12-31T20:09:03.940Z,14.98
2022-12-31T20:11:33.110Z,15.17
2022-12-31T20:14:00.726Z,15.05
2022-12-31T20:16:33.056Z,15.08
2022-12-31T20:19:00.130Z,15.16
2022-12-31T20:21:30.284Z,15.17
2022-12-31T20:23:58.142Z,15.29
2022-12-31T20:26:25.929Z,15.43
2022-12-31T20:28:54.468Z,15.54
2022-12-31T20:31:26.464Z,15.59
2022-12-31T20:33:54.541Z,15.66
2022-12-31T20:36:26.386Z,15.68
2022-12-31T20:38:53.273Z,15.62
2022-12-31T20:41:22.074Z,15.69
2022-12-31T20:43:49.229Z,15.74
2022-12-31T20:46:21.485Z,15.85
2022-12-31T20:48:49.023Z,15.83
2022-12-31T20:51:16.736Z,15.96
2022-12-31T20:53:50.995Z,16.00
2022-12-31T20:56:17.951Z,15.94
2022-12-31T20:58:45.101Z,15.88
2022-12-31T21:01:12.416Z,16.16
2022-12-31T21:06:27.794Z,16.29
2022-12-31T21:08:55.107Z,16.29
2022-12-31T21:11:41.049Z,16.23
2022-12-31T21:14:08.427Z,16.36
2022-12-31T21:16:35.167Z,16.38
2022-12-31T21:19:02.920Z,16.40
2022-12-31T21:21:30.043Z,16.38
2022-12-31T21:23:57.541Z,16.31
2022-12-31T21:26:24.740Z,16.31
2022-12-31T21:28:52.550Z,16.21
2022-12-31T21:31:19.725Z,16.19
2022-12-31T21:33:46.917Z,16.17
2022-12-31T21:36:14.429Z,16.06
2022-12-31T21:38:41.521Z,16.15
2022-12-31T21:41:09.171Z,16.14
2022-12-31T21:43:36.490Z,16.13
2022-12-31T21:46:04.295Z,16.17
2022-12-31T21:48:31.584Z,16.14
2022-12-31T21:51:06.636Z,16.11
2022-12-31T21:53:36.857Z,16.08
2022-12-31T21:56:16.109Z,16.18
2022-12-31T21:58:44.201Z,16.24
2022-12-31T22:01:37.032Z,16.09
2022-12-31T22:04:04.801Z,16.19
2022-12-31T22:06:33.158Z,16.25
2022-12-31T22:09:00.063Z,16.32
2022-12-31T22:11:27.552Z,16.27
2022-12-31T22:13:54.913Z,16.33
2022-12-31T22:16:22.498Z,16.33
2022-12-31T22:18:49.796Z,16.33
2022-12-31T22:21:19.834Z,16.40
2022-12-31T22:23:48.389Z,16.25
2022-12-31T22:26:16.507Z,16.29
2022-12-31T22:28:44.005Z,16.28
2022-12-31T22:31:21.587Z,16.41
2022-12-31T22:33:48.665Z,16.43
2022-12-31T22:36:17.488Z,16.41
2022-12-31T22:38:44.908Z,16.35
2022-12-31T22:41:13.819Z,16.36
2022-12-31T22:43:41.995Z,16.41
2022-12-31T22:46:10.210Z,16.43
2022-12-31T22:48:38.123Z,16.43
2022-12-31T22:51:05.967Z,16.43
2022-12-31T22:53:34.470Z,16.51
2022-12-31T22:56:01.344Z,16.52
2022-12-31T22:58:28.033Z,16.57
2022-12-31T23:00:55.268Z,16.46
2022-12-31T23:03:22.606Z,16.48
2022-12-31T23:05:51.660Z,16.49
2022-12-31T23:08:23.615Z,16.59
2022-12-31T23:11:01.020Z,16.51
2022-12-31T23:13:50.818Z,16.40
2022-12-31T23:16:37.801Z,16.58
2022-12-31T23:19:23.491Z,16.66
2022-12-31T23:22:09.586Z,16.60
2022-12-31T23:24:36.766Z,16.49
2022-12-31T23:27:04.727Z,16.56
2022-12-31T23:29:31.580Z,16.49
2022-12-31T23:31:58.371Z,16.49
2022-12-31T23:34:26.304Z,16.58
2022-12-31T23:36:54.098Z,16.70
2022-12-31T23:39:21.431Z,16.79
2022-12-31T23:41:48.070Z,16.83
2022-12-31T23:44:14.686Z,16.79
2022-12-31T23:46:44.358Z,16.90
2022-12-31T23:49:11.543Z,16.84
2022-12-31T23:51:40.240Z,16.87
2022-12-31T23:54:09.907Z,16.93
2022-12-31T23:56:38.758Z,16.92
2022-12-31T23:59:09.146Z,16.92
